sensor_id;sensor_type;location;lat;lon;timestamp;P1;durP1;ratioP1;P2;durP2;ratioP2
71127;SDS011;59249;59.736;30.568;2023-07-20T00:00:04;6.30;;;1.10;;
71127;SDS011;59249;59.736;30.568;2023-07-20T00:03:05;6.10;;;1.33;;
71127;SDS011;59249;59.736;30.568;2023-07-20T00:05:44;5.40;;;1.35;;
71127;SDS011;59249;59.736;30.568;2023-07-20T00:08:13;8.70;;;2.10;;
71127;SDS011;59249;59.736;30.568;2023-07-20T00:10:42;5.22;;;1.35;;
71127;SDS011;59249;59.736;30.568;2023-07-20T00:13:11;4.73;;;1.37;;
71127;SDS011;59249;59.736;30.568;2023-07-20T00:15:42;5.63;;;1.40;;
71127;SDS011;59249;59.736;30.568;2023-07-20T00:18:13;6.07;;;2.13;;
71127;SDS011;59249;59.736;30.568;2023-07-20T00:20:41;4.80;;;1.67;;
71127;SDS011;59249;59.736;30.568;2023-07-20T00:23:10;7.03;;;1.27;;
71127;SDS011;59249;59.736;30.568;2023-07-20T00:25:39;6.77;;;1.83;;
71127;SDS011;59249;59.736;30.568;2023-07-20T00:28:08;8.13;;;2.60;;
71127;SDS011;59249;59.736;30.568;2023-07-20T00:30:37;6.55;;;1.40;;
71127;SDS011;59249;59.736;30.568;2023-07-20T00:33:10;4.95;;;1.20;;
71127;SDS011;59249;59.736;30.568;2023-07-20T00:35:44;9.10;;;1.38;;
71127;SDS011;59249;59.736;30.568;2023-07-20T00:38:15;6.83;;;1.40;;
71127;SDS011;59249;59.736;30.568;2023-07-20T00:40:44;5.30;;;1.23;;
71127;SDS011;59249;59.736;30.568;2023-07-20T00:43:13;8.15;;;1.10;;
71127;SDS011;59249;59.736;30.568;2023-07-20T00:45:42;4.80;;;1.30;;
71127;SDS011;59249;59.736;30.568;2023-07-20T00:48:14;5.50;;;1.10;;
71127;SDS011;59249;59.736;30.568;2023-07-20T00:50:43;6.77;;;0.97;;
71127;SDS011;59249;59.736;30.568;2023-07-20T00:53:15;8.05;;;1.27;;
71127;SDS011;59249;59.736;30.568;2023-07-20T00:55:44;6.50;;;0.82;;
71127;SDS011;59249;59.736;30.568;2023-07-20T00:58:13;4.93;;;1.25;;
71127;SDS011;59249;59.736;30.568;2023-07-20T01:00:42;9.80;;;1.40;;
71127;SDS011;59249;59.736;30.568;2023-07-20T01:03:11;4.13;;;1.10;;
71127;SDS011;59249;59.736;30.568;2023-07-20T01:05:42;6.20;;;1.15;;
71127;SDS011;59249;59.736;30.568;2023-07-20T01:08:24;4.47;;;0.98;;
71127;SDS011;59249;59.736;30.568;2023-07-20T01:11:10;7.15;;;1.92;;
71127;SDS011;59249;59.736;30.568;2023-07-20T01:13:44;4.05;;;1.10;;
71127;SDS011;59249;59.736;30.568;2023-07-20T01:16:14;4.63;;;1.00;;
71127;SDS011;59249;59.736;30.568;2023-07-20T01:18:44;7.45;;;1.20;;
71127;SDS011;59249;59.736;30.568;2023-07-20T01:21:13;4.82;;;1.00;;
71127;SDS011;59249;59.736;30.568;2023-07-20T01:24:00;4.18;;;1.00;;
71127;SDS011;59249;59.736;30.568;2023-07-20T01:27:08;6.38;;;1.00;;
71127;SDS011;59249;59.736;30.568;2023-07-20T01:30:14;4.40;;;0.90;;
71127;SDS011;59249;59.736;30.568;2023-07-20T01:33:03;4.35;;;0.82;;
71127;SDS011;59249;59.736;30.568;2023-07-20T01:35:34;6.47;;;0.90;;
71127;SDS011;59249;59.736;30.568;2023-07-20T01:38:06;4.47;;;1.10;;
71127;SDS011;59249;59.736;30.568;2023-07-20T01:40:37;3.70;;;0.88;;
71127;SDS011;59249;59.736;30.568;2023-07-20T01:43:07;4.50;;;1.10;;
71127;SDS011;59249;59.736;30.568;2023-07-20T01:45:36;5.78;;;1.00;;
71127;SDS011;59249;59.736;30.568;2023-07-20T01:48:06;5.72;;;1.30;;
71127;SDS011;59249;59.736;30.568;2023-07-20T01:50:35;6.93;;;1.17;;
71127;SDS011;59249;59.736;30.568;2023-07-20T01:53:04;3.35;;;0.80;;
71127;SDS011;59249;59.736;30.568;2023-07-20T01:55:33;7.50;;;1.33;;
71127;SDS011;59249;59.736;30.568;2023-07-20T01:58:02;5.82;;;1.38;;
71127;SDS011;59249;59.736;30.568;2023-07-20T02:00:30;4.57;;;0.95;;
71127;SDS011;59249;59.736;30.568;2023-07-20T02:02:59;5.93;;;1.00;;
71127;SDS011;59249;59.736;30.568;2023-07-20T02:05:29;3.92;;;1.23;;
71127;SDS011;59249;59.736;30.568;2023-07-20T02:07:58;4.30;;;0.97;;
71127;SDS011;59249;59.736;30.568;2023-07-20T02:10:27;6.82;;;1.00;;
71127;SDS011;59249;59.736;30.568;2023-07-20T02:12:57;3.70;;;1.08;;
71127;SDS011;59249;59.736;30.568;2023-07-20T02:15:26;5.32;;;1.00;;
71127;SDS011;59249;59.736;30.568;2023-07-20T02:17:55;9.20;;;1.58;;
71127;SDS011;59249;59.736;30.568;2023-07-20T02:20:24;5.50;;;1.10;;
71127;SDS011;59249;59.736;30.568;2023-07-20T02:22:55;6.18;;;1.20;;
71127;SDS011;59249;59.736;30.568;2023-07-20T02:25:24;2.75;;;0.73;;
71127;SDS011;59249;59.736;30.568;2023-07-20T02:27:53;4.28;;;0.93;;
71127;SDS011;59249;59.736;30.568;2023-07-20T02:30:25;5.38;;;1.20;;
71127;SDS011;59249;59.736;30.568;2023-07-20T02:32:55;7.40;;;1.50;;
71127;SDS011;59249;59.736;30.568;2023-07-20T02:35:25;4.65;;;1.33;;
71127;SDS011;59249;59.736;30.568;2023-07-20T02:37:55;5.85;;;1.52;;
71127;SDS011;59249;59.736;30.568;2023-07-20T02:40:24;6.82;;;1.15;;
71127;SDS011;59249;59.736;30.568;2023-07-20T02:42:54;7.32;;;1.00;;
71127;SDS011;59249;59.736;30.568;2023-07-20T02:45:23;6.67;;;1.10;;
71127;SDS011;59249;59.736;30.568;2023-07-20T02:47:52;3.80;;;1.30;;
71127;SDS011;59249;59.736;30.568;2023-07-20T02:50:21;5.25;;;1.00;;
71127;SDS011;59249;59.736;30.568;2023-07-20T02:52:50;6.78;;;1.10;;
71127;SDS011;59249;59.736;30.568;2023-07-20T02:55:20;5.43;;;1.40;;
71127;SDS011;59249;59.736;30.568;2023-07-20T02:57:49;5.00;;;1.17;;
71127;SDS011;59249;59.736;30.568;2023-07-20T03:00:18;4.18;;;1.23;;
71127;SDS011;59249;59.736;30.568;2023-07-20T03:02:48;5.93;;;1.05;;
71127;SDS011;59249;59.736;30.568;2023-07-20T03:05:19;6.57;;;1.05;;
71127;SDS011;59249;59.736;30.568;2023-07-20T03:07:48;6.88;;;1.00;;
71127;SDS011;59249;59.736;30.568;2023-07-20T03:10:17;7.03;;;1.17;;
71127;SDS011;59249;59.736;30.568;2023-07-20T03:12:48;8.38;;;1.48;;
71127;SDS011;59249;59.736;30.568;2023-07-20T03:15:17;6.43;;;1.15;;
71127;SDS011;59249;59.736;30.568;2023-07-20T03:17:46;4.72;;;1.50;;
71127;SDS011;59249;59.736;30.568;2023-07-20T03:20:16;5.75;;;1.30;;
71127;SDS011;59249;59.736;30.568;2023-07-20T03:22:45;6.83;;;1.20;;
71127;SDS011;59249;59.736;30.568;2023-07-20T03:25:14;7.32;;;1.65;;
71127;SDS011;59249;59.736;30.568;2023-07-20T03:27:44;6.13;;;1.13;;
71127;SDS011;59249;59.736;30.568;2023-07-20T03:30:15;5.00;;;0.93;;
71127;SDS011;59249;59.736;30.568;2023-07-20T03:32:44;7.05;;;1.50;;
71127;SDS011;59249;59.736;30.568;2023-07-20T03:35:13;5.60;;;1.17;;
71127;SDS011;59249;59.736;30.568;2023-07-20T03:37:42;7.38;;;1.83;;
71127;SDS011;59249;59.736;30.568;2023-07-20T03:40:11;6.00;;;1.23;;
71127;SDS011;59249;59.736;30.568;2023-07-20T03:42:41;5.97;;;1.23;;
71127;SDS011;59249;59.736;30.568;2023-07-20T03:45:10;5.10;;;1.10;;
71127;SDS011;59249;59.736;30.568;2023-07-20T03:47:41;5.70;;;1.80;;
71127;SDS011;59249;59.736;30.568;2023-07-20T03:50:11;8.65;;;1.65;;
71127;SDS011;59249;59.736;30.568;2023-07-20T03:52:40;4.95;;;1.10;;
71127;SDS011;59249;59.736;30.568;2023-07-20T03:55:09;7.53;;;1.40;;
71127;SDS011;59249;59.736;30.568;2023-07-20T03:57:38;7.07;;;1.10;;
71127;SDS011;59249;59.736;30.568;2023-07-20T04:00:08;5.13;;;1.30;;
71127;SDS011;59249;59.736;30.568;2023-07-20T04:02:39;6.40;;;1.10;;
71127;SDS011;59249;59.736;30.568;2023-07-20T04:05:09;6.13;;;1.27;;
71127;SDS011;59249;59.736;30.568;2023-07-20T04:07:38;6.30;;;1.63;;
71127;SDS011;59249;59.736;30.568;2023-07-20T04:10:10;8.52;;;1.60;;
71127;SDS011;59249;59.736;30.568;2023-07-20T04:12:48;5.77;;;1.53;;
71127;SDS011;59249;59.736;30.568;2023-07-20T04:15:18;5.57;;;1.63;;
71127;SDS011;59249;59.736;30.568;2023-07-20T04:17:49;6.97;;;1.48;;
71127;SDS011;59249;59.736;30.568;2023-07-20T04:20:18;6.88;;;1.08;;
71127;SDS011;59249;59.736;30.568;2023-07-20T04:22:47;7.20;;;1.50;;
71127;SDS011;59249;59.736;30.568;2023-07-20T04:25:18;6.07;;;1.00;;
71127;SDS011;59249;59.736;30.568;2023-07-20T04:27:47;4.53;;;0.90;;
71127;SDS011;59249;59.736;30.568;2023-07-20T04:30:17;6.15;;;1.40;;
71127;SDS011;59249;59.736;30.568;2023-07-20T04:32:50;5.28;;;1.85;;
71127;SDS011;59249;59.736;30.568;2023-07-20T04:38:23;5.03;;;1.13;;
71127;SDS011;59249;59.736;30.568;2023-07-20T04:41:07;5.93;;;1.10;;
71127;SDS011;59249;59.736;30.568;2023-07-20T04:43:40;7.80;;;1.27;;
71127;SDS011;59249;59.736;30.568;2023-07-20T04:46:10;5.72;;;1.02;;
71127;SDS011;59249;59.736;30.568;2023-07-20T04:48:42;4.25;;;1.00;;
71127;SDS011;59249;59.736;30.568;2023-07-20T04:51:11;5.77;;;1.60;;
71127;SDS011;59249;59.736;30.568;2023-07-20T04:53:41;6.60;;;1.30;;
71127;SDS011;59249;59.736;30.568;2023-07-20T04:56:11;7.25;;;1.00;;
71127;SDS011;59249;59.736;30.568;2023-07-20T04:58:40;5.72;;;1.00;;
71127;SDS011;59249;59.736;30.568;2023-07-20T05:01:10;6.28;;;1.13;;
71127;SDS011;59249;59.736;30.568;2023-07-20T05:03:40;4.43;;;1.10;;
71127;SDS011;59249;59.736;30.568;2023-07-20T05:06:19;4.82;;;1.08;;
71127;SDS011;59249;59.736;30.568;2023-07-20T05:08:49;5.28;;;0.93;;
71127;SDS011;59249;59.736;30.568;2023-07-20T05:11:17;14.10;;;1.10;;
71127;SDS011;59249;59.736;30.568;2023-07-20T05:13:46;5.63;;;0.80;;
71127;SDS011;59249;59.736;30.568;2023-07-20T05:16:15;4.57;;;0.70;;
71127;SDS011;59249;59.736;30.568;2023-07-20T05:18:45;2.80;;;0.70;;
71127;SDS011;59249;59.736;30.568;2023-07-20T05:21:14;3.78;;;0.60;;
71127;SDS011;59249;59.736;30.568;2023-07-20T05:23:44;4.60;;;0.80;;
71127;SDS011;59249;59.736;30.568;2023-07-20T05:26:14;5.30;;;1.10;;
71127;SDS011;59249;59.736;30.568;2023-07-20T05:28:43;4.00;;;0.90;;
71127;SDS011;59249;59.736;30.568;2023-07-20T05:31:12;8.57;;;1.15;;
71127;SDS011;59249;59.736;30.568;2023-07-20T05:33:41;4.38;;;0.73;;
71127;SDS011;59249;59.736;30.568;2023-07-20T05:36:10;6.07;;;1.02;;
71127;SDS011;59249;59.736;30.568;2023-07-20T05:38:39;4.20;;;0.82;;
71127;SDS011;59249;59.736;30.568;2023-07-20T05:41:11;4.67;;;0.80;;
71127;SDS011;59249;59.736;30.568;2023-07-20T05:43:40;5.53;;;1.10;;
71127;SDS011;59249;59.736;30.568;2023-07-20T05:46:09;3.08;;;0.98;;
71127;SDS011;59249;59.736;30.568;2023-07-20T05:48:38;4.63;;;0.85;;
71127;SDS011;59249;59.736;30.568;2023-07-20T05:51:08;3.60;;;0.90;;
71127;SDS011;59249;59.736;30.568;2023-07-20T05:53:36;3.40;;;0.90;;
71127;SDS011;59249;59.736;30.568;2023-07-20T05:56:06;4.35;;;1.25;;
71127;SDS011;59249;59.736;30.568;2023-07-20T05:58:38;3.63;;;0.73;;
71127;SDS011;59249;59.736;30.568;2023-07-20T06:01:07;4.32;;;0.98;;
71127;SDS011;59249;59.736;30.568;2023-07-20T06:03:36;5.05;;;1.15;;
71127;SDS011;59249;59.736;30.568;2023-07-20T06:06:05;5.03;;;1.00;;
71127;SDS011;59249;59.736;30.568;2023-07-20T06:08:36;3.95;;;0.80;;
71127;SDS011;59249;59.736;30.568;2023-07-20T06:11:05;5.45;;;0.60;;
71127;SDS011;59249;59.736;30.568;2023-07-20T06:13:33;5.28;;;0.93;;
71127;SDS011;59249;59.736;30.568;2023-07-20T06:16:04;5.68;;;0.73;;
71127;SDS011;59249;59.736;30.568;2023-07-20T06:18:33;7.63;;;1.00;;
71127;SDS011;59249;59.736;30.568;2023-07-20T06:21:02;3.47;;;0.88;;
71127;SDS011;59249;59.736;30.568;2023-07-20T06:23:30;4.00;;;0.82;;
71127;SDS011;59249;59.736;30.568;2023-07-20T06:25:59;6.50;;;1.02;;
71127;SDS011;59249;59.736;30.568;2023-07-20T06:28:28;3.03;;;0.65;;
71127;SDS011;59249;59.736;30.568;2023-07-20T06:31:00;4.00;;;0.67;;
71127;SDS011;59249;59.736;30.568;2023-07-20T06:33:30;3.50;;;0.70;;
71127;SDS011;59249;59.736;30.568;2023-07-20T06:35:59;4.80;;;1.20;;
71127;SDS011;59249;59.736;30.568;2023-07-20T06:38:28;3.15;;;0.60;;
71127;SDS011;59249;59.736;30.568;2023-07-20T06:40:58;2.38;;;0.52;;
71127;SDS011;59249;59.736;30.568;2023-07-20T06:43:30;5.80;;;0.63;;
71127;SDS011;59249;59.736;30.568;2023-07-20T06:46:01;5.68;;;0.60;;
71127;SDS011;59249;59.736;30.568;2023-07-20T06:48:32;3.53;;;0.55;;
71127;SDS011;59249;59.736;30.568;2023-07-20T06:51:21;3.78;;;1.05;;
71127;SDS011;59249;59.736;30.568;2023-07-20T06:53:51;3.88;;;0.52;;
71127;SDS011;59249;59.736;30.568;2023-07-20T06:56:20;7.87;;;1.00;;
71127;SDS011;59249;59.736;30.568;2023-07-20T06:58:51;6.32;;;1.17;;
71127;SDS011;59249;59.736;30.568;2023-07-20T07:01:20;5.22;;;0.90;;
71127;SDS011;59249;59.736;30.568;2023-07-20T07:03:51;4.80;;;0.90;;
71127;SDS011;59249;59.736;30.568;2023-07-20T07:06:22;6.40;;;0.60;;
71127;SDS011;59249;59.736;30.568;2023-07-20T07:08:52;6.80;;;1.07;;
71127;SDS011;59249;59.736;30.568;2023-07-20T07:11:21;4.07;;;0.57;;
71127;SDS011;59249;59.736;30.568;2023-07-20T07:13:50;3.53;;;1.13;;
71127;SDS011;59249;59.736;30.568;2023-07-20T07:16:23;5.80;;;1.38;;
71127;SDS011;59249;59.736;30.568;2023-07-20T07:18:54;4.43;;;0.90;;
71127;SDS011;59249;59.736;30.568;2023-07-20T07:21:26;4.97;;;0.90;;
71127;SDS011;59249;59.736;30.568;2023-07-20T07:23:56;5.15;;;0.98;;
71127;SDS011;59249;59.736;30.568;2023-07-20T07:26:26;8.18;;;1.00;;
71127;SDS011;59249;59.736;30.568;2023-07-20T07:28:55;4.10;;;1.45;;
71127;SDS011;59249;59.736;30.568;2023-07-20T07:31:24;5.18;;;1.10;;
71127;SDS011;59249;59.736;30.568;2023-07-20T07:33:55;4.97;;;0.80;;
71127;SDS011;59249;59.736;30.568;2023-07-20T07:36:24;3.25;;;0.98;;
71127;SDS011;59249;59.736;30.568;2023-07-20T07:38:52;3.13;;;0.70;;
71127;SDS011;59249;59.736;30.568;2023-07-20T07:41:24;5.10;;;0.95;;
71127;SDS011;59249;59.736;30.568;2023-07-20T07:43:53;1.70;;;0.60;;
71127;SDS011;59249;59.736;30.568;2023-07-20T07:46:22;5.53;;;0.70;;
71127;SDS011;59249;59.736;30.568;2023-07-20T07:48:51;4.18;;;0.70;;
71127;SDS011;59249;59.736;30.568;2023-07-20T07:51:21;3.33;;;1.00;;
71127;SDS011;59249;59.736;30.568;2023-07-20T07:53:50;3.72;;;0.80;;
71127;SDS011;59249;59.736;30.568;2023-07-20T07:56:19;4.95;;;0.80;;
71127;SDS011;59249;59.736;30.568;2023-07-20T07:58:50;11.07;;;1.40;;
71127;SDS011;59249;59.736;30.568;2023-07-20T08:01:19;5.03;;;1.30;;
71127;SDS011;59249;59.736;30.568;2023-07-20T08:03:49;5.70;;;1.17;;
71127;SDS011;59249;59.736;30.568;2023-07-20T08:06:18;7.35;;;1.40;;
71127;SDS011;59249;59.736;30.568;2023-07-20T08:08:49;6.00;;;1.23;;
71127;SDS011;59249;59.736;30.568;2023-07-20T08:11:18;4.90;;;0.70;;
71127;SDS011;59249;59.736;30.568;2023-07-20T08:13:46;3.13;;;0.75;;
71127;SDS011;59249;59.736;30.568;2023-07-20T08:16:15;3.53;;;0.85;;
71127;SDS011;59249;59.736;30.568;2023-07-20T08:18:44;3.92;;;0.70;;
71127;SDS011;59249;59.736;30.568;2023-07-20T08:21:13;5.40;;;1.00;;
71127;SDS011;59249;59.736;30.568;2023-07-20T08:23:44;3.60;;;0.60;;
71127;SDS011;59249;59.736;30.568;2023-07-20T08:26:16;5.15;;;1.10;;
71127;SDS011;59249;59.736;30.568;2023-07-20T08:28:49;4.28;;;0.95;;
71127;SDS011;59249;59.736;30.568;2023-07-20T08:31:18;2.38;;;0.80;;
71127;SDS011;59249;59.736;30.568;2023-07-20T08:33:48;3.75;;;0.80;;
71127;SDS011;59249;59.736;30.568;2023-07-20T08:36:17;2.73;;;0.70;;
71127;SDS011;59249;59.736;30.568;2023-07-20T08:38:49;2.47;;;0.60;;
71127;SDS011;59249;59.736;30.568;2023-07-20T08:41:17;4.47;;;0.75;;
71127;SDS011;59249;59.736;30.568;2023-07-20T08:43:47;2.28;;;0.60;;
71127;SDS011;59249;59.736;30.568;2023-07-20T08:46:16;4.15;;;0.90;;
71127;SDS011;59249;59.736;30.568;2023-07-20T08:48:45;4.70;;;1.00;;
71127;SDS011;59249;59.736;30.568;2023-07-20T08:51:15;3.88;;;0.93;;
71127;SDS011;59249;59.736;30.568;2023-07-20T08:53:45;2.67;;;0.90;;
71127;SDS011;59249;59.736;30.568;2023-07-20T08:56:19;3.05;;;0.65;;
71127;SDS011;59249;59.736;30.568;2023-07-20T08:58:49;3.33;;;0.90;;
71127;SDS011;59249;59.736;30.568;2023-07-20T09:01:20;2.43;;;0.83;;
71127;SDS011;59249;59.736;30.568;2023-07-20T09:03:50;4.32;;;0.85;;
71127;SDS011;59249;59.736;30.568;2023-07-20T09:06:18;4.07;;;1.02;;
71127;SDS011;59249;59.736;30.568;2023-07-20T09:08:49;5.28;;;1.20;;
71127;SDS011;59249;59.736;30.568;2023-07-20T09:11:19;2.47;;;0.70;;
71127;SDS011;59249;59.736;30.568;2023-07-20T09:13:47;2.90;;;0.80;;
71127;SDS011;59249;59.736;30.568;2023-07-20T09:16:29;4.18;;;1.02;;
71127;SDS011;59249;59.736;30.568;2023-07-20T09:18:58;2.90;;;0.68;;
71127;SDS011;59249;59.736;30.568;2023-07-20T09:21:28;4.05;;;0.75;;
71127;SDS011;59249;59.736;30.568;2023-07-20T09:23:59;5.13;;;1.10;;
71127;SDS011;59249;59.736;30.568;2023-07-20T09:26:28;3.73;;;0.80;;
71127;SDS011;59249;59.736;30.568;2023-07-20T09:28:57;3.75;;;0.77;;
71127;SDS011;59249;59.736;30.568;2023-07-20T09:31:27;2.92;;;1.05;;
71127;SDS011;59249;59.736;30.568;2023-07-20T09:34:06;5.20;;;1.70;;
71127;SDS011;59249;59.736;30.568;2023-07-20T09:36:36;4.05;;;0.90;;
71127;SDS011;59249;59.736;30.568;2023-07-20T09:39:09;5.27;;;0.93;;
71127;SDS011;59249;59.736;30.568;2023-07-20T09:41:41;7.05;;;1.17;;
71127;SDS011;59249;59.736;30.568;2023-07-20T09:44:13;3.58;;;0.82;;
71127;SDS011;59249;59.736;30.568;2023-07-20T09:46:46;2.28;;;0.60;;
71127;SDS011;59249;59.736;30.568;2023-07-20T09:49:19;2.80;;;0.60;;
71127;SDS011;59249;59.736;30.568;2023-07-20T09:51:51;2.10;;;0.67;;
71127;SDS011;59249;59.736;30.568;2023-07-20T09:54:31;1.23;;;0.40;;
71127;SDS011;59249;59.736;30.568;2023-07-20T09:57:00;2.42;;;0.70;;
71127;SDS011;59249;59.736;30.568;2023-07-20T09:59:31;2.63;;;0.60;;
71127;SDS011;59249;59.736;30.568;2023-07-20T10:02:01;4.53;;;1.10;;
71127;SDS011;59249;59.736;30.568;2023-07-20T10:04:41;2.20;;;0.70;;
71127;SDS011;59249;59.736;30.568;2023-07-20T10:07:12;4.38;;;1.00;;
71127;SDS011;59249;59.736;30.568;2023-07-20T10:09:52;7.70;;;1.20;;
71127;SDS011;59249;59.736;30.568;2023-07-20T10:12:25;4.78;;;0.98;;
71127;SDS011;59249;59.736;30.568;2023-07-20T10:15:03;3.85;;;1.00;;
71127;SDS011;59249;59.736;30.568;2023-07-20T10:17:42;4.37;;;0.90;;
71127;SDS011;59249;59.736;30.568;2023-07-20T10:20:27;4.20;;;1.27;;
71127;SDS011;59249;59.736;30.568;2023-07-20T10:23:01;3.65;;;0.90;;
71127;SDS011;59249;59.736;30.568;2023-07-20T10:25:36;3.20;;;0.82;;
71127;SDS011;59249;59.736;30.568;2023-07-20T10:28:08;4.95;;;1.67;;
71127;SDS011;59249;59.736;30.568;2023-07-20T10:30:38;3.80;;;1.23;;
71127;SDS011;59249;59.736;30.568;2023-07-20T10:33:09;3.70;;;0.90;;
71127;SDS011;59249;59.736;30.568;2023-07-20T10:35:50;6.68;;;0.90;;
71127;SDS011;59249;59.736;30.568;2023-07-20T10:38:35;4.03;;;1.17;;
71127;SDS011;59249;59.736;30.568;2023-07-20T10:41:19;3.85;;;1.15;;
71127;SDS011;59249;59.736;30.568;2023-07-20T10:43:55;3.20;;;1.10;;
71127;SDS011;59249;59.736;30.568;2023-07-20T10:46:36;4.72;;;1.38;;
71127;SDS011;59249;59.736;30.568;2023-07-20T10:49:12;2.55;;;1.10;;
71127;SDS011;59249;59.736;30.568;2023-07-20T10:51:43;4.47;;;1.60;;
71127;SDS011;59249;59.736;30.568;2023-07-20T10:57:23;7.20;;;3.10;;
71127;SDS011;59249;59.736;30.568;2023-07-20T11:00:11;7.95;;;4.75;;
71127;SDS011;59249;59.736;30.568;2023-07-20T11:02:43;11.30;;;5.93;;
71127;SDS011;59249;59.736;30.568;2023-07-20T11:05:34;14.30;;;6.57;;
71127;SDS011;59249;59.736;30.568;2023-07-20T11:08:06;12.52;;;6.50;;
71127;SDS011;59249;59.736;30.568;2023-07-20T11:10:39;14.23;;;8.40;;
71127;SDS011;59249;59.736;30.568;2023-07-20T11:13:19;16.67;;;10.32;;
71127;SDS011;59249;59.736;30.568;2023-07-20T11:16:04;15.55;;;9.27;;
71127;SDS011;59249;59.736;30.568;2023-07-20T11:18:34;18.98;;;8.48;;
71127;SDS011;59249;59.736;30.568;2023-07-20T11:21:08;13.90;;;8.30;;
71127;SDS011;59249;59.736;30.568;2023-07-20T11:23:39;11.37;;;6.47;;
71127;SDS011;59249;59.736;30.568;2023-07-20T11:26:08;10.90;;;6.03;;
71127;SDS011;59249;59.736;30.568;2023-07-20T11:28:40;10.95;;;5.57;;
71127;SDS011;59249;59.736;30.568;2023-07-20T11:31:08;12.35;;;5.45;;
71127;SDS011;59249;59.736;30.568;2023-07-20T11:33:37;10.90;;;3.83;;
71127;SDS011;59249;59.736;30.568;2023-07-20T11:36:06;9.60;;;3.83;;
71127;SDS011;59249;59.736;30.568;2023-07-20T11:38:41;8.55;;;3.40;;
71127;SDS011;59249;59.736;30.568;2023-07-20T11:41:11;8.45;;;2.70;;
71127;SDS011;59249;59.736;30.568;2023-07-20T11:43:42;7.65;;;2.00;;
71127;SDS011;59249;59.736;30.568;2023-07-20T11:46:14;3.42;;;1.30;;
71127;SDS011;59249;59.736;30.568;2023-07-20T11:48:44;6.27;;;1.50;;
71127;SDS011;59249;59.736;30.568;2023-07-20T11:51:13;4.57;;;1.75;;
71127;SDS011;59249;59.736;30.568;2023-07-20T11:53:44;7.10;;;1.48;;
71127;SDS011;59249;59.736;30.568;2023-07-20T11:56:15;6.20;;;1.50;;
71127;SDS011;59249;59.736;30.568;2023-07-20T11:58:45;6.93;;;1.40;;
71127;SDS011;59249;59.736;30.568;2023-07-20T12:01:14;5.30;;;1.73;;
71127;SDS011;59249;59.736;30.568;2023-07-20T12:03:47;3.90;;;1.60;;
71127;SDS011;59249;59.736;30.568;2023-07-20T12:06:17;6.95;;;1.10;;
71127;SDS011;59249;59.736;30.568;2023-07-20T12:08:46;9.25;;;1.30;;
71127;SDS011;59249;59.736;30.568;2023-07-20T12:11:29;5.38;;;1.27;;
71127;SDS011;59249;59.736;30.568;2023-07-20T12:14:02;2.97;;;1.07;;
71127;SDS011;59249;59.736;30.568;2023-07-20T12:16:43;3.92;;;1.63;;
71127;SDS011;59249;59.736;30.568;2023-07-20T12:19:12;7.72;;;1.88;;
71127;SDS011;59249;59.736;30.568;2023-07-20T12:21:41;5.97;;;1.88;;
71127;SDS011;59249;59.736;30.568;2023-07-20T12:24:10;8.15;;;2.10;;
71127;SDS011;59249;59.736;30.568;2023-07-20T12:26:39;3.87;;;1.00;;
71127;SDS011;59249;59.736;30.568;2023-07-20T12:29:09;4.97;;;1.08;;
71127;SDS011;59249;59.736;30.568;2023-07-20T12:31:38;4.03;;;1.02;;
71127;SDS011;59249;59.736;30.568;2023-07-20T12:34:07;5.57;;;1.08;;
71127;SDS011;59249;59.736;30.568;2023-07-20T12:36:38;5.18;;;1.40;;
71127;SDS011;59249;59.736;30.568;2023-07-20T12:39:06;5.33;;;1.40;;
71127;SDS011;59249;59.736;30.568;2023-07-20T12:41:35;6.25;;;1.10;;
71127;SDS011;59249;59.736;30.568;2023-07-20T12:44:05;4.68;;;1.25;;
71127;SDS011;59249;59.736;30.568;2023-07-20T12:46:35;3.10;;;0.90;;
71127;SDS011;59249;59.736;30.568;2023-07-20T12:49:05;4.75;;;1.00;;
71127;SDS011;59249;59.736;30.568;2023-07-20T12:51:34;4.77;;;1.40;;
71127;SDS011;59249;59.736;30.568;2023-07-20T12:54:03;4.13;;;1.00;;
71127;SDS011;59249;59.736;30.568;2023-07-20T12:56:32;4.78;;;0.98;;
71127;SDS011;59249;59.736;30.568;2023-07-20T12:59:03;3.25;;;0.80;;
71127;SDS011;59249;59.736;30.568;2023-07-20T13:01:32;4.05;;;0.93;;
71127;SDS011;59249;59.736;30.568;2023-07-20T13:04:05;3.80;;;1.30;;
71127;SDS011;59249;59.736;30.568;2023-07-20T13:06:38;4.07;;;0.80;;
71127;SDS011;59249;59.736;30.568;2023-07-20T13:09:08;3.13;;;0.60;;
71127;SDS011;59249;59.736;30.568;2023-07-20T13:11:37;4.03;;;0.75;;
71127;SDS011;59249;59.736;30.568;2023-07-20T13:14:05;4.35;;;0.57;;
71127;SDS011;59249;59.736;30.568;2023-07-20T13:16:36;2.00;;;0.70;;
71127;SDS011;59249;59.736;30.568;2023-07-20T13:19:05;5.85;;;0.98;;
71127;SDS011;59249;59.736;30.568;2023-07-20T13:21:34;7.28;;;0.85;;
71127;SDS011;59249;59.736;30.568;2023-07-20T13:24:04;3.92;;;1.00;;
71127;SDS011;59249;59.736;30.568;2023-07-20T13:26:34;7.57;;;1.52;;
71127;SDS011;59249;59.736;30.568;2023-07-20T13:29:02;2.33;;;0.63;;
71127;SDS011;59249;59.736;30.568;2023-07-20T13:31:32;3.33;;;0.70;;
71127;SDS011;59249;59.736;30.568;2023-07-20T13:34:03;3.90;;;0.52;;
71127;SDS011;59249;59.736;30.568;2023-07-20T13:36:34;3.42;;;0.80;;
71127;SDS011;59249;59.736;30.568;2023-07-20T13:39:03;2.63;;;0.60;;
71127;SDS011;59249;59.736;30.568;2023-07-20T13:41:32;2.83;;;0.60;;
71127;SDS011;59249;59.736;30.568;2023-07-20T13:44:01;3.17;;;0.55;;
71127;SDS011;59249;59.736;30.568;2023-07-20T13:46:32;4.85;;;0.70;;
71127;SDS011;59249;59.736;30.568;2023-07-20T13:49:05;5.75;;;0.70;;
71127;SDS011;59249;59.736;30.568;2023-07-20T13:51:39;2.40;;;0.65;;
71127;SDS011;59249;59.736;30.568;2023-07-20T13:54:09;3.30;;;0.63;;
71127;SDS011;59249;59.736;30.568;2023-07-20T13:56:42;6.90;;;1.17;;
71127;SDS011;59249;59.736;30.568;2023-07-20T13:59:11;6.95;;;1.00;;
71127;SDS011;59249;59.736;30.568;2023-07-20T14:01:41;3.00;;;1.00;;
71127;SDS011;59249;59.736;30.568;2023-07-20T14:04:11;2.25;;;0.55;;
71127;SDS011;59249;59.736;30.568;2023-07-20T14:06:40;4.87;;;1.00;;
71127;SDS011;59249;59.736;30.568;2023-07-20T14:09:10;3.75;;;0.73;;
71127;SDS011;59249;59.736;30.568;2023-07-20T14:11:39;3.85;;;0.65;;
71127;SDS011;59249;59.736;30.568;2023-07-20T14:14:11;2.92;;;0.75;;
71127;SDS011;59249;59.736;30.568;2023-07-20T14:16:40;1.15;;;0.40;;
71127;SDS011;59249;59.736;30.568;2023-07-20T14:19:11;4.60;;;1.00;;
71127;SDS011;59249;59.736;30.568;2023-07-20T14:21:40;5.30;;;0.80;;
71127;SDS011;59249;59.736;30.568;2023-07-20T14:24:09;3.42;;;0.68;;
71127;SDS011;59249;59.736;30.568;2023-07-20T14:29:55;1.50;;;0.60;;
71127;SDS011;59249;59.736;30.568;2023-07-20T14:32:26;2.00;;;0.70;;
71127;SDS011;59249;59.736;30.568;2023-07-20T14:34:56;3.63;;;0.90;;
71127;SDS011;59249;59.736;30.568;2023-07-20T14:37:26;3.85;;;0.70;;
71127;SDS011;59249;59.736;30.568;2023-07-20T14:39:55;1.45;;;0.52;;
71127;SDS011;59249;59.736;30.568;2023-07-20T14:42:24;3.80;;;0.60;;
71127;SDS011;59249;59.736;30.568;2023-07-20T14:44:54;6.00;;;0.93;;
71127;SDS011;59249;59.736;30.568;2023-07-20T14:47:22;4.25;;;0.50;;
71127;SDS011;59249;59.736;30.568;2023-07-20T14:49:51;5.03;;;0.70;;
71127;SDS011;59249;59.736;30.568;2023-07-20T14:52:24;2.50;;;0.50;;
71127;SDS011;59249;59.736;30.568;2023-07-20T14:54:55;1.58;;;0.60;;
71127;SDS011;59249;59.736;30.568;2023-07-20T14:57:24;3.53;;;1.53;;
71127;SDS011;59249;59.736;30.568;2023-07-20T14:59:53;2.83;;;0.73;;
71127;SDS011;59249;59.736;30.568;2023-07-20T15:02:22;6.40;;;0.80;;
71127;SDS011;59249;59.736;30.568;2023-07-20T15:04:52;2.50;;;0.50;;